Terminal Aerodrome Forecast
Issued by NWS

Home | Current Version | Previous Version | Text Only | Print | Product List | Glossary On
Versions: 1 2 3 4 5 6 7 8 9 10 11 12 13 14 15
000
FTAK31 PAJN 270500
TAFAJN
TAF
PAJN 270530Z 2706/2806 07004KT P6SM -SHRA FEW015 BKN035 OVC050
     FM270800 11008KT 6SM -SHRA SCT015 OVC035
      TEMPO 2709/2713 4SM SHRA BR FEW005 OVC025
     FM271500 10008KT P6SM VCSH OVC035=

USA.gov is the U.S. government's official web portal to all federal, state and local government web resources and services.